createdAt,value
2022-12-22T00:00:25.141Z,0.00
2022-12-22T00:01:25.100Z,0.00
2022-12-22T00:02:25.251Z,0.00
2022-12-22T00:03:25.142Z,0.00
2022-12-22T00:04:24.964Z,0.00
2022-12-22T00:05:24.912Z,0.00
2022-12-22T00:06:24.877Z,0.00
2022-12-22T00:07:24.846Z,0.00
2022-12-22T00:08:24.786Z,0.00
2022-12-22T00:09:24.745Z,0.00
2022-12-22T00:10:24.718Z,0.00
2022-12-22T00:11:24.662Z,0.00
2022-12-22T00:12:24.659Z,0.00
2022-12-22T00:13:24.588Z,0.00
2022-12-22T00:14:24.546Z,0.00
2022-12-22T00:15:24.500Z,0.00
2022-12-22T00:16:24.547Z,0.00
2022-12-22T00:17:24.415Z,0.00
2022-12-22T00:18:24.384Z,0.00
2022-12-22T00:19:24.328Z,0.00
2022-12-22T00:20:24.289Z,0.00
2022-12-22T00:21:24.254Z,0.00
2022-12-22T00:22:24.216Z,0.00
2022-12-22T00:23:24.158Z,0.00
2022-12-22T00:24:24.135Z,0.00
2022-12-22T00:25:24.080Z,0.00
2022-12-22T00:26:24.040Z,0.00
2022-12-22T00:27:23.999Z,0.00
2022-12-22T00:28:23.975Z,0.00
2022-12-22T00:29:23.917Z,0.00
2022-12-22T00:30:23.870Z,0.00
2022-12-22T00:31:23.911Z,0.00
2022-12-22T00:32:23.794Z,0.00
2022-12-22T00:33:23.837Z,0.00
2022-12-22T00:34:26.687Z,0.00
2022-12-22T00:35:23.657Z,0.00
2022-12-22T00:36:23.625Z,0.00
2022-12-22T00:37:23.587Z,0.00
2022-12-22T00:38:23.538Z,0.00
2022-12-22T00:39:23.492Z,0.00
2022-12-22T00:40:23.463Z,0.00
2022-12-22T00:41:23.415Z,0.00
2022-12-22T00:42:23.382Z,0.00
2022-12-22T00:43:23.349Z,0.00
2022-12-22T00:44:23.299Z,0.00
2022-12-22T00:45:23.251Z,0.00
2022-12-22T00:46:23.315Z,0.00
2022-12-22T00:47:23.166Z,0.00
2022-12-22T00:48:23.129Z,0.00
2022-12-22T00:49:23.085Z,0.00
2022-12-22T00:50:23.070Z,0.00
2022-12-22T00:51:22.997Z,0.00
2022-12-22T00:52:22.969Z,0.00
2022-12-22T00:53:22.913Z,0.00
2022-12-22T00:54:22.883Z,0.00
2022-12-22T00:55:22.830Z,0.00
2022-12-22T00:56:22.797Z,0.00
2022-12-22T00:57:22.766Z,0.00
2022-12-22T00:58:22.723Z,0.00
2022-12-22T00:59:22.853Z,0.00
2022-12-22T01:00:22.629Z,0.00
2022-12-22T01:01:22.627Z,0.00
2022-12-22T01:02:22.689Z,0.00
2022-12-22T01:03:22.541Z,0.00
2022-12-22T01:04:22.637Z,0.00
2022-12-22T01:05:22.418Z,0.00
2022-12-22T01:06:22.394Z,0.00
2022-12-22T01:07:22.339Z,0.00
2022-12-22T01:08:22.290Z,0.00
2022-12-22T01:09:22.256Z,0.00
2022-12-22T01:10:22.198Z,0.00
2022-12-22T01:11:22.160Z,0.00
2022-12-22T01:12:22.124Z,0.00
2022-12-22T01:13:22.076Z,0.00
2022-12-22T01:14:22.061Z,0.00
2022-12-22T01:15:21.997Z,0.00
2022-12-22T01:16:22.037Z,0.00
2022-12-22T01:17:21.910Z,0.00
2022-12-22T01:18:21.870Z,0.00
2022-12-22T01:19:21.821Z,0.00
2022-12-22T01:20:21.800Z,0.00
2022-12-22T01:21:21.743Z,0.00
2022-12-22T01:22:21.702Z,0.00
2022-12-22T01:23:21.655Z,0.00
2022-12-22T01:24:21.620Z,0.00
2022-12-22T01:25:21.570Z,0.00
2022-12-22T01:26:21.542Z,0.00
2022-12-22T01:27:21.494Z,0.00
2022-12-22T01:28:21.452Z,0.00
2022-12-22T01:29:21.403Z,0.00
2022-12-22T01:30:21.376Z,0.00
2022-12-22T01:31:21.393Z,0.00
2022-12-22T01:32:21.293Z,0.00
2022-12-22T01:33:21.237Z,0.00
2022-12-22T01:34:21.198Z,0.00
2022-12-22T01:35:21.167Z,0.00
2022-12-22T01:36:21.114Z,0.00
2022-12-22T01:37:21.083Z,0.00
2022-12-22T01:38:21.041Z,0.00
2022-12-22T01:39:20.989Z,0.00
2022-12-22T01:40:20.971Z,0.00
2022-12-22T01:41:20.909Z,0.00
2022-12-22T01:42:20.871Z,0.00
2022-12-22T01:43:20.837Z,0.00
2022-12-22T01:44:20.779Z,0.00
2022-12-22T01:45:20.751Z,0.00
2022-12-22T01:46:20.735Z,0.00
2022-12-22T01:47:20.665Z,0.00
2022-12-22T01:48:20.620Z,0.00
2022-12-22T01:49:20.570Z,0.00
2022-12-22T01:50:20.530Z,0.00
2022-12-22T01:51:20.486Z,0.00
2022-12-22T01:52:20.459Z,0.00
2022-12-22T01:53:20.428Z,0.00
2022-12-22T01:54:20.377Z,0.00
2022-12-22T01:55:20.328Z,0.00
2022-12-22T01:56:20.290Z,0.00
2022-12-22T01:57:20.284Z,0.00
2022-12-22T01:58:20.285Z,0.00
2022-12-22T01:59:20.172Z,0.00
2022-12-22T02:00:20.129Z,0.00
2022-12-22T02:01:20.129Z,0.00
2022-12-22T02:02:20.205Z,0.00
2022-12-22T02:03:20.046Z,0.00
2022-12-22T02:04:19.964Z,0.00
2022-12-22T02:05:19.907Z,0.00
2022-12-22T02:06:19.876Z,0.00
2022-12-22T02:07:19.825Z,0.00
2022-12-22T02:08:19.782Z,0.00
2022-12-22T02:09:19.733Z,0.00
2022-12-22T02:10:19.709Z,0.00
2022-12-22T02:11:19.654Z,0.00
2022-12-22T02:12:19.610Z,0.00
2022-12-22T02:13:19.574Z,0.00
2022-12-22T02:14:21.544Z,0.00
2022-12-22T02:15:19.497Z,0.00
2022-12-22T02:16:19.594Z,0.00
2022-12-22T02:17:19.401Z,0.00
2022-12-22T02:18:19.393Z,0.00
2022-12-22T02:19:19.325Z,0.00
2022-12-22T02:20:19.276Z,0.00
2022-12-22T02:21:19.240Z,0.00
2022-12-22T02:22:19.214Z,0.00
2022-12-22T02:23:19.147Z,0.00
2022-12-22T02:24:19.114Z,0.00
2022-12-22T02:25:19.735Z,0.00
2022-12-22T02:26:19.255Z,0.00
2022-12-22T02:27:18.994Z,0.00
2022-12-22T02:28:18.959Z,0.00
2022-12-22T02:29:18.942Z,0.00
2022-12-22T02:30:18.866Z,0.00
2022-12-22T02:31:19.789Z,0.00
2022-12-22T02:32:18.841Z,0.00
2022-12-22T02:33:18.742Z,0.00
2022-12-22T02:34:18.717Z,0.00
2022-12-22T02:35:18.751Z,0.00
2022-12-22T02:36:18.621Z,0.00
2022-12-22T02:37:18.749Z,0.00
2022-12-22T02:38:18.531Z,0.00
2022-12-22T02:39:18.492Z,0.00
2022-12-22T02:40:18.467Z,0.00
2022-12-22T02:41:18.410Z,0.00
2022-12-22T02:42:18.368Z,0.00
2022-12-22T02:43:18.319Z,0.00
2022-12-22T02:44:18.281Z,0.00
2022-12-22T02:45:18.242Z,0.00
2022-12-22T02:46:18.251Z,0.00
2022-12-22T02:47:18.165Z,0.00
2022-12-22T02:48:18.119Z,0.00
2022-12-22T02:49:18.069Z,0.00
2022-12-22T02:50:18.051Z,0.00
2022-12-22T02:51:17.984Z,0.00
2022-12-22T02:52:17.961Z,0.00
2022-12-22T02:53:17.910Z,0.00
2022-12-22T02:54:17.866Z,0.00
2022-12-22T02:55:17.818Z,0.00
2022-12-22T02:56:17.786Z,0.00
2022-12-22T02:57:17.735Z,0.00
2022-12-22T02:58:17.757Z,0.00
2022-12-22T02:59:17.663Z,0.00
2022-12-22T03:00:17.619Z,0.00
2022-12-22T03:01:17.617Z,0.00
2022-12-22T03:02:17.765Z,0.00
2022-12-22T03:03:17.737Z,0.00
2022-12-22T03:04:17.471Z,0.00
2022-12-22T03:05:17.443Z,0.00
2022-12-22T03:06:17.369Z,0.00
2022-12-22T03:07:17.323Z,0.00
2022-12-22T03:08:17.284Z,0.00
2022-12-22T03:09:17.237Z,0.00
2022-12-22T03:10:17.219Z,0.00
2022-12-22T03:11:17.163Z,0.00
2022-12-22T03:12:17.117Z,0.00
2022-12-22T03:13:17.096Z,0.00
2022-12-22T03:14:17.045Z,0.00
2022-12-22T03:15:16.989Z,0.00
2022-12-22T03:16:17.008Z,0.00
2022-12-22T03:17:16.909Z,0.00
2022-12-22T03:18:16.870Z,0.00
2022-12-22T03:19:16.822Z,0.00
2022-12-22T03:20:16.806Z,0.00
2022-12-22T03:21:16.739Z,0.00
2022-12-22T03:22:16.715Z,0.00
2022-12-22T03:23:16.659Z,0.00
2022-12-22T03:24:16.618Z,0.00
2022-12-22T03:25:23.663Z,0.00
2022-12-22T03:26:16.536Z,0.00
2022-12-22T03:27:16.494Z,0.00
2022-12-22T03:28:16.458Z,0.00
2022-12-22T03:29:16.407Z,0.00
2022-12-22T03:30:16.367Z,0.00
2022-12-22T03:31:16.393Z,0.00
2022-12-22T03:32:16.289Z,0.00
2022-12-22T03:33:16.251Z,0.00
2022-12-22T03:34:16.201Z,0.00
2022-12-22T03:35:16.164Z,0.00
2022-12-22T03:36:16.120Z,0.00
2022-12-22T03:37:16.090Z,0.00
2022-12-22T03:38:16.038Z,0.00
2022-12-22T03:39:15.997Z,0.00
2022-12-22T03:40:15.951Z,0.00
2022-12-22T03:41:15.919Z,0.00
2022-12-22T03:42:15.877Z,0.00
2022-12-22T03:43:15.844Z,0.00
2022-12-22T03:44:15.803Z,0.00
2022-12-22T03:45:15.767Z,0.00
2022-12-22T03:46:15.761Z,0.00
2022-12-22T03:47:15.773Z,0.00
2022-12-22T03:48:15.621Z,0.00
2022-12-22T03:49:15.592Z,0.00
2022-12-22T03:50:15.536Z,0.00
2022-12-22T03:51:15.501Z,0.00
2022-12-22T03:52:15.453Z,0.00
2022-12-22T03:53:15.414Z,0.00
2022-12-22T03:54:15.384Z,0.00
2022-12-22T03:55:15.338Z,0.00
2022-12-22T03:56:15.286Z,0.00
2022-12-22T03:57:15.254Z,0.00
2022-12-22T03:58:15.219Z,0.00
2022-12-22T03:59:15.163Z,0.00
2022-12-22T04:00:15.128Z,0.00
2022-12-22T04:01:15.119Z,0.00
2022-12-22T04:02:15.160Z,0.00
2022-12-22T04:03:15.197Z,0.00
2022-12-22T04:04:14.956Z,0.00
2022-12-22T04:05:14.940Z,0.00
2022-12-22T04:06:14.900Z,0.00
2022-12-22T04:07:14.834Z,0.00
2022-12-22T04:08:14.789Z,0.00
2022-12-22T04:09:14.760Z,0.00
2022-12-22T04:10:14.711Z,0.00
2022-12-22T04:11:14.705Z,0.00
2022-12-22T04:12:14.633Z,0.00
2022-12-22T04:13:14.580Z,0.00
2022-12-22T04:14:14.550Z,0.00
2022-12-22T04:15:14.511Z,0.00
2022-12-22T04:16:14.496Z,0.00
2022-12-22T04:17:14.413Z,0.00
2022-12-22T04:18:14.395Z,0.00
2022-12-22T04:19:14.364Z,0.00
2022-12-22T04:20:14.314Z,0.00
2022-12-22T04:21:14.273Z,0.00
2022-12-22T04:22:14.220Z,0.00
2022-12-22T04:23:14.187Z,0.00
2022-12-22T04:24:14.170Z,0.00
2022-12-22T04:25:14.087Z,0.00
2022-12-22T04:26:14.036Z,0.00
2022-12-22T04:27:14.004Z,0.00
2022-12-22T04:28:14.051Z,0.00
2022-12-22T04:29:13.933Z,0.00
2022-12-22T04:30:13.922Z,0.00
2022-12-22T04:31:13.868Z,0.00
2022-12-22T04:32:13.949Z,0.00
2022-12-22T04:33:13.756Z,0.00
2022-12-22T04:34:13.721Z,0.00
2022-12-22T04:35:13.705Z,0.00
2022-12-22T04:36:13.663Z,0.00
2022-12-22T04:37:17.417Z,0.00
2022-12-22T04:38:13.583Z,0.00
2022-12-22T04:39:13.519Z,0.00
2022-12-22T04:40:13.480Z,0.00
2022-12-22T04:41:13.442Z,0.00
2022-12-22T04:42:13.423Z,0.00
2022-12-22T04:43:13.369Z,0.00
2022-12-22T04:44:13.308Z,0.00
2022-12-22T04:45:13.261Z,0.00
2022-12-22T04:46:13.311Z,0.00
2022-12-22T04:47:13.184Z,0.00
2022-12-22T04:48:13.148Z,0.00
2022-12-22T04:49:13.098Z,0.00
2022-12-22T04:50:13.069Z,0.00
2022-12-22T04:51:13.015Z,0.00
2022-12-22T04:52:12.970Z,0.00
2022-12-22T04:53:12.925Z,0.00
2022-12-22T04:54:12.901Z,0.00
2022-12-22T04:55:12.846Z,0.00
2022-12-22T04:56:12.795Z,0.00
2022-12-22T04:57:12.760Z,0.00
2022-12-22T04:58:12.714Z,0.00
2022-12-22T04:59:12.689Z,0.00
2022-12-22T05:00:12.650Z,0.00
2022-12-22T05:01:12.636Z,0.00
2022-12-22T05:02:12.700Z,0.00
2022-12-22T05:03:12.547Z,0.00
2022-12-22T05:04:12.471Z,0.00
2022-12-22T05:05:12.445Z,0.00
2022-12-22T05:06:12.419Z,0.00
2022-12-22T05:07:12.367Z,0.00
2022-12-22T05:08:12.335Z,0.00
2022-12-22T05:09:12.259Z,0.00
2022-12-22T05:10:12.223Z,0.00
2022-12-22T05:11:12.180Z,0.00
2022-12-22T05:12:12.141Z,0.00
2022-12-22T05:13:12.119Z,0.00
2022-12-22T05:14:12.097Z,0.00
2022-12-22T05:15:12.038Z,0.00
2022-12-22T05:16:12.032Z,0.00
2022-12-22T05:17:12.057Z,0.00
2022-12-22T05:18:11.901Z,0.00
2022-12-22T05:19:11.859Z,0.00
2022-12-22T05:20:11.829Z,0.00
2022-12-22T05:21:11.771Z,0.00
2022-12-22T05:22:11.717Z,0.00
2022-12-22T05:23:11.689Z,0.00
2022-12-22T05:24:11.668Z,0.00
2022-12-22T05:25:11.636Z,0.00
2022-12-22T05:26:11.552Z,0.00
2022-12-22T05:27:11.543Z,0.00
2022-12-22T05:28:11.476Z,0.00
2022-12-22T05:29:11.432Z,0.00
2022-12-22T05:30:11.410Z,0.00
2022-12-22T05:31:11.393Z,0.00
2022-12-22T05:32:11.309Z,0.00
2022-12-22T05:33:11.270Z,0.00
2022-12-22T05:34:11.238Z,0.00
2022-12-22T05:35:11.226Z,0.00
2022-12-22T05:36:11.157Z,0.00
2022-12-22T05:37:11.115Z,0.00
2022-12-22T05:38:11.064Z,0.00
2022-12-22T05:39:11.015Z,0.00
2022-12-22T05:40:10.990Z,0.00
2022-12-22T05:41:10.967Z,0.00
2022-12-22T05:42:10.901Z,0.00
2022-12-22T05:43:10.896Z,0.00
2022-12-22T05:44:10.834Z,0.00
2022-12-22T05:45:10.775Z,0.00
2022-12-22T05:46:10.863Z,0.00
2022-12-22T05:47:10.682Z,0.00
2022-12-22T05:48:10.674Z,0.00
2022-12-22T05:49:10.643Z,0.00
2022-12-22T05:50:10.595Z,0.00
2022-12-22T05:51:10.549Z,0.00
2022-12-22T05:52:10.499Z,0.00
2022-12-22T05:53:10.477Z,0.00
2022-12-22T05:54:10.402Z,0.00
2022-12-22T05:55:10.403Z,0.00
2022-12-22T05:56:10.329Z,0.00
2022-12-22T05:57:10.281Z,0.00
2022-12-22T05:58:10.238Z,0.00
2022-12-22T05:59:10.190Z,0.00
2022-12-22T06:00:10.167Z,0.00
2022-12-22T06:01:10.147Z,0.00
2022-12-22T06:02:10.198Z,0.00
2022-12-22T06:03:10.125Z,0.00
2022-12-22T06:04:10.083Z,0.00
2022-12-22T06:05:09.958Z,0.00
2022-12-22T06:06:09.912Z,0.00
2022-12-22T06:07:09.886Z,0.00
2022-12-22T06:08:09.835Z,0.00
2022-12-22T06:09:09.784Z,0.00
2022-12-22T06:10:12.513Z,0.00
2022-12-22T06:11:09.722Z,0.00
2022-12-22T06:12:09.668Z,0.00
2022-12-22T06:13:09.623Z,0.00
2022-12-22T06:14:09.605Z,0.00
2022-12-22T06:15:09.539Z,0.00
2022-12-22T06:16:09.567Z,0.00
2022-12-22T06:17:09.467Z,0.00
2022-12-22T06:18:09.432Z,0.00
2022-12-22T06:19:09.390Z,0.00
2022-12-22T06:20:09.339Z,0.00
2022-12-22T06:21:09.287Z,0.00
2022-12-22T06:22:09.243Z,0.00
2022-12-22T06:23:09.221Z,0.00
2022-12-22T06:24:09.194Z,0.00
2022-12-22T06:25:13.597Z,0.00
2022-12-22T06:26:09.094Z,0.00
2022-12-22T06:27:09.043Z,0.00
2022-12-22T06:28:09.005Z,0.00
2022-12-22T06:29:08.965Z,0.00
2022-12-22T06:30:08.950Z,0.00
2022-12-22T06:31:08.993Z,0.00
2022-12-22T06:32:08.842Z,0.00
2022-12-22T06:33:08.823Z,0.00
2022-12-22T06:34:08.766Z,0.00
2022-12-22T06:35:08.732Z,0.00
2022-12-22T06:36:08.697Z,0.00
2022-12-22T06:37:08.650Z,0.00
2022-12-22T06:38:08.591Z,0.00
2022-12-22T06:39:08.562Z,0.00
2022-12-22T06:40:08.569Z,0.00
2022-12-22T06:41:08.509Z,0.00
2022-12-22T06:42:08.453Z,0.00
2022-12-22T06:43:09.598Z,0.00
2022-12-22T06:44:08.367Z,0.00
2022-12-22T06:45:08.318Z,0.00
2022-12-22T06:46:08.327Z,0.00
2022-12-22T06:47:08.219Z,0.00
2022-12-22T06:48:08.192Z,0.00
2022-12-22T06:49:08.140Z,0.00
2022-12-22T06:50:08.129Z,0.00
2022-12-22T06:51:08.060Z,0.00
2022-12-22T06:52:08.024Z,0.00
2022-12-22T06:53:08.003Z,0.00
2022-12-22T06:54:07.948Z,0.00
2022-12-22T06:55:08.381Z,0.00
2022-12-22T06:56:07.861Z,0.00
2022-12-22T06:57:07.822Z,0.00
2022-12-22T06:58:07.766Z,0.00
2022-12-22T06:59:07.745Z,0.00
2022-12-22T07:00:07.763Z,0.00
2022-12-22T07:01:07.676Z,0.00
2022-12-22T07:02:07.700Z,0.00
2022-12-22T07:03:07.741Z,0.00
2022-12-22T07:04:07.591Z,4.00
2022-12-22T07:05:07.502Z,4.00
2022-12-22T07:06:07.440Z,0.00
2022-12-22T07:07:07.419Z,4.00
2022-12-22T07:08:09.194Z,4.00
2022-12-22T07:09:07.331Z,4.00
2022-12-22T07:10:07.274Z,8.00
2022-12-22T07:11:07.288Z,8.00
2022-12-22T07:12:07.222Z,4.00
2022-12-22T07:13:07.175Z,8.00
2022-12-22T07:14:07.143Z,12.00
2022-12-22T07:15:07.084Z,12.00
2022-12-22T07:16:07.120Z,16.00
2022-12-22T07:17:07.000Z,12.00
2022-12-22T07:18:06.967Z,16.00
2022-12-22T07:19:06.929Z,20.00
2022-12-22T07:20:06.923Z,16.00
2022-12-22T07:21:06.846Z,20.00
2022-12-22T07:22:06.802Z,20.00
2022-12-22T07:23:06.779Z,24.00
2022-12-22T07:24:06.705Z,32.00
2022-12-22T07:25:06.674Z,28.00
2022-12-22T07:26:06.659Z,32.00
2022-12-22T07:27:06.598Z,40.00
2022-12-22T07:28:06.568Z,44.00
2022-12-22T07:29:06.537Z,48.00
2022-12-22T07:30:06.503Z,56.00
2022-12-22T07:31:06.569Z,64.00
2022-12-22T07:32:06.378Z,68.00
2022-12-22T07:33:06.364Z,68.00
2022-12-22T07:34:06.355Z,76.00
2022-12-22T07:35:06.310Z,80.00
2022-12-22T07:36:06.252Z,92.00
2022-12-22T07:37:14.544Z,112.00
2022-12-22T07:38:10.219Z,112.00
2022-12-22T07:39:06.157Z,108.00
2022-12-22T07:40:06.050Z,92.00
2022-12-22T07:41:09.491Z,88.00
2022-12-22T07:42:32.530Z,100.00
2022-12-22T07:43:06.070Z,96.00
2022-12-22T07:44:17.273Z,104.00
2022-12-22T07:45:46.774Z,112.00
2022-12-22T07:46:12.809Z,128.00
2022-12-22T07:48:06.359Z,128.00
2022-12-22T07:49:05.797Z,136.00
2022-12-22T07:50:05.689Z,136.00
2022-12-22T07:51:05.598Z,120.00
2022-12-22T07:52:05.564Z,120.00
2022-12-22T07:53:05.551Z,128.00
2022-12-22T07:54:05.481Z,120.00
2022-12-22T07:55:05.451Z,140.00
2022-12-22T07:56:05.451Z,140.00
2022-12-22T07:57:05.365Z,152.00
2022-12-22T08:06:03.978Z,256.00
2022-12-22T08:07:03.928Z,244.00
2022-12-22T08:08:03.941Z,276.00
2022-12-22T08:09:03.973Z,328.00
2022-12-22T08:10:03.866Z,348.00
2022-12-22T08:11:18.626Z,316.00
2022-12-22T08:12:03.733Z,324.00
2022-12-22T08:13:03.745Z,328.00
2022-12-22T08:14:03.653Z,332.00
2022-12-22T08:15:03.624Z,328.00
2022-12-22T08:16:03.646Z,356.00
2022-12-22T08:17:03.529Z,352.00
2022-12-22T08:18:03.497Z,408.00
2022-12-22T08:19:03.460Z,476.00
2022-12-22T08:20:03.413Z,520.00
2022-12-22T08:21:03.373Z,492.00
2022-12-22T08:22:03.329Z,480.00
2022-12-22T08:23:03.271Z,496.00
2022-12-22T08:24:03.252Z,632.00
2022-12-22T08:25:03.207Z,644.00
2022-12-22T08:26:03.153Z,684.00
2022-12-22T08:27:03.130Z,788.00
2022-12-22T08:28:03.081Z,876.00
2022-12-22T08:29:03.038Z,852.00
2022-12-22T08:30:02.984Z,824.00
2022-12-22T08:31:02.941Z,796.00
2022-12-22T08:32:02.929Z,868.00
2022-12-22T08:33:02.855Z,792.00
2022-12-22T08:34:02.838Z,700.00
2022-12-22T08:35:02.797Z,660.00
2022-12-22T08:36:07.774Z,608.00
2022-12-22T08:37:02.706Z,604.00
2022-12-22T08:38:02.657Z,696.00
2022-12-22T08:39:02.627Z,776.00
2022-12-22T08:40:02.564Z,780.00
2022-12-22T08:41:02.545Z,832.00
2022-12-22T08:42:02.488Z,932.00
2022-12-22T08:43:02.459Z,1156.00
2022-12-22T08:44:02.406Z,1124.00
2022-12-22T08:45:02.394Z,1128.00
2022-12-22T08:46:02.343Z,940.00
2022-12-22T08:47:02.350Z,1028.00
2022-12-22T08:48:02.246Z,1032.00
2022-12-22T08:49:02.214Z,1164.00
2022-12-22T08:50:02.159Z,1004.00
2022-12-22T08:51:02.147Z,1012.00
2022-12-22T08:52:02.076Z,996.00
2022-12-22T08:53:02.041Z,984.00
2022-12-22T08:54:05.124Z,1008.00
2022-12-22T08:55:01.975Z,992.00
2022-12-22T08:56:01.912Z,1104.00
2022-12-22T08:57:01.896Z,1168.00
2022-12-22T08:58:01.844Z,1308.00
2022-12-22T08:59:02.546Z,1348.00
2022-12-22T09:00:01.756Z,1272.00
2022-12-22T09:01:01.749Z,1704.00
2022-12-22T09:02:01.773Z,1708.00
2022-12-22T09:03:01.838Z,1628.00
2022-12-22T09:04:01.583Z,1608.00
2022-12-22T09:05:01.549Z,1800.00
2022-12-22T09:06:01.514Z,1852.00
2022-12-22T09:07:01.532Z,1888.00
2022-12-22T09:08:01.415Z,1916.00
2022-12-22T09:09:01.404Z,1816.00
2022-12-22T09:10:01.337Z,1824.00
2022-12-22T09:11:01.311Z,1884.00
2022-12-22T09:12:01.276Z,2084.00
2022-12-22T09:13:01.246Z,2040.00
2022-12-22T09:14:01.176Z,2184.00
2022-12-22T09:15:01.150Z,2136.00
2022-12-22T09:16:01.142Z,1984.00
2022-12-22T09:17:01.128Z,1836.00
2022-12-22T09:18:01.007Z,1888.00
2022-12-22T09:19:01.557Z,1776.00
2022-12-22T09:20:00.950Z,1316.00
2022-12-22T09:21:00.887Z,1096.00
2022-12-22T09:22:00.857Z,1192.00
2022-12-22T09:23:00.830Z,1524.00
2022-12-22T09:24:00.769Z,1860.00
2022-12-22T09:25:00.748Z,2140.00
2022-12-22T09:26:07.844Z,1840.00
2022-12-22T09:27:00.657Z,1740.00
2022-12-22T09:28:00.618Z,1680.00
2022-12-22T09:29:00.575Z,1848.00
2022-12-22T09:30:00.521Z,1908.00
2022-12-22T09:31:00.483Z,2120.00
2022-12-22T09:32:00.507Z,1856.00
2022-12-22T09:33:00.411Z,1896.00
2022-12-22T09:34:00.360Z,2044.00
2022-12-22T09:35:00.339Z,2368.00
2022-12-22T09:36:00.280Z,2808.00
2022-12-22T09:37:00.249Z,2964.00
2022-12-22T09:38:00.192Z,3252.00
2022-12-22T09:39:00.208Z,3224.00
2022-12-22T09:40:00.138Z,2948.00
2022-12-22T09:41:00.106Z,3148.00
2022-12-22T09:42:00.064Z,2824.00
2022-12-22T09:42:59.991Z,2940.00
2022-12-22T09:43:59.957Z,4492.00
2022-12-22T09:44:59.930Z,5584.00
2022-12-22T09:45:59.958Z,5348.00
2022-12-22T09:46:59.832Z,5236.00
2022-12-22T09:47:59.785Z,5504.00
2022-12-22T09:48:59.797Z,4576.00
2022-12-22T09:49:59.712Z,4632.00
2022-12-22T09:50:59.678Z,4000.00
2022-12-22T09:51:59.637Z,3316.00
2022-12-22T09:52:59.585Z,2200.00
2022-12-22T09:53:59.572Z,1356.00
2022-12-22T09:54:59.503Z,984.00
2022-12-22T10:33:16.275Z,1836.00
2022-12-22T10:34:16.225Z,2116.00
2022-12-22T10:35:16.183Z,1640.00
2022-12-22T10:36:16.131Z,1284.00
2022-12-22T10:37:16.102Z,1896.00
2022-12-22T10:38:21.365Z,2756.00
2022-12-22T10:39:16.007Z,3628.00
2022-12-22T10:40:15.971Z,3580.00
2022-12-22T10:41:15.994Z,2900.00
2022-12-22T10:42:15.898Z,2488.00
2022-12-22T10:43:15.848Z,2556.00
2022-12-22T10:44:15.820Z,2420.00
2022-12-22T10:45:15.754Z,2776.00
2022-12-22T11:04:47.669Z,5768.00
2022-12-22T11:05:47.632Z,6900.00
2022-12-22T11:06:47.589Z,4264.00
2022-12-22T11:07:47.539Z,5772.00
2022-12-22T11:08:51.551Z,5428.00
2022-12-22T11:09:47.454Z,5532.00
2022-12-22T11:10:47.407Z,5148.00
2022-12-22T11:11:47.747Z,4392.00
2022-12-22T11:12:47.323Z,5088.00
2022-12-22T11:13:47.290Z,5388.00
2022-12-22T11:14:47.248Z,6168.00
2022-12-22T11:15:47.208Z,6876.00
2022-12-22T11:16:47.195Z,6084.00
2022-12-22T11:17:47.135Z,7792.00
2022-12-22T11:18:47.079Z,7452.00
2022-12-22T11:19:47.041Z,5300.00
2022-12-22T11:20:46.995Z,5268.00
2022-12-22T11:21:46.960Z,7836.00
2022-12-22T11:22:46.917Z,5916.00
2022-12-22T11:23:46.896Z,6400.00
2022-12-22T11:24:46.835Z,6616.00
2022-12-22T11:25:46.797Z,5544.00
2022-12-22T11:26:46.752Z,6312.00
2022-12-22T11:27:46.722Z,6308.00
2022-12-22T11:28:46.673Z,6824.00
2022-12-22T11:29:46.647Z,8340.00
2022-12-22T11:30:46.643Z,7504.00
2022-12-22T11:31:46.553Z,6036.00
2022-12-22T11:32:46.510Z,5168.00
2022-12-22T11:33:56.252Z,4984.00
2022-12-22T11:34:46.432Z,5036.00
2022-12-22T11:35:46.402Z,8944.00
2022-12-22T11:36:46.366Z,7688.00
2022-12-22T11:41:08.036Z,4768.00
2022-12-22T11:47:54.494Z,5340.00
2022-12-22T11:48:54.456Z,5620.00
2022-12-22T12:12:12.170Z,6832.00
2022-12-22T12:13:12.112Z,6960.00
2022-12-22T12:14:12.083Z,6472.00
2022-12-22T12:15:12.028Z,6196.00
2022-12-22T12:16:12.092Z,6012.00
2022-12-22T12:17:11.940Z,6280.00
2022-12-22T12:18:11.909Z,6308.00
2022-12-22T12:19:11.859Z,6152.00
2022-12-22T12:20:12.024Z,6348.00
2022-12-22T12:21:11.779Z,6928.00
2022-12-22T12:22:12.193Z,7232.00
2022-12-22T12:23:11.703Z,6220.00
2022-12-22T12:24:11.662Z,5720.00
2022-12-22T12:25:11.631Z,5204.00
2022-12-22T12:26:11.590Z,5048.00
2022-12-22T12:27:11.549Z,4756.00
2022-12-22T12:28:11.497Z,4228.00
2022-12-22T12:29:11.529Z,4116.00
2022-12-22T12:30:37.519Z,4320.00
2022-12-22T12:31:11.420Z,4544.00
2022-12-22T12:32:11.335Z,4832.00
2022-12-22T12:33:12.684Z,4860.00
2022-12-22T12:34:11.259Z,4804.00
2022-12-22T12:35:11.216Z,4840.00
2022-12-22T12:36:11.175Z,4932.00
2022-12-22T12:37:11.138Z,5680.00
2022-12-22T12:38:32.301Z,5716.00
2022-12-22T12:39:11.079Z,5600.00
2022-12-22T12:40:11.027Z,5916.00
2022-12-22T12:41:10.982Z,5376.00
2022-12-22T12:42:10.938Z,4880.00
2022-12-22T12:43:15.982Z,5312.00
2022-12-22T12:44:10.874Z,5452.00
2022-12-22T12:45:10.827Z,4996.00
2022-12-22T12:46:10.794Z,4624.00
2022-12-22T12:47:10.789Z,4820.00
2022-12-22T12:48:10.695Z,5064.00
2022-12-22T12:49:10.655Z,5056.00
2022-12-22T12:50:10.647Z,4972.00
2022-12-22T12:51:10.655Z,4824.00
2022-12-22T12:52:10.548Z,5284.00
2022-12-22T12:53:10.527Z,5092.00
2022-12-22T12:54:10.461Z,4604.00
2022-12-22T12:55:14.304Z,4736.00
2022-12-22T12:56:13.351Z,5144.00
2022-12-22T12:57:10.356Z,5180.00
2022-12-22T12:58:10.329Z,5448.00
2022-12-22T12:59:10.256Z,5528.00
2022-12-22T13:00:10.223Z,5884.00
2022-12-22T13:01:10.195Z,5864.00
2022-12-22T13:02:10.319Z,5956.00
2022-12-22T13:03:20.042Z,5708.00
2022-12-22T13:04:10.152Z,5776.00
2022-12-22T13:05:10.031Z,5460.00
2022-12-22T13:06:09.984Z,5208.00
2022-12-22T13:07:09.951Z,5152.00
2022-12-22T13:08:09.895Z,4964.00
2022-12-22T13:09:48.615Z,4860.00
2022-12-22T13:10:09.854Z,5060.00
2022-12-22T13:11:09.781Z,5056.00
2022-12-22T13:12:12.657Z,4936.00
2022-12-22T13:13:09.718Z,4840.00
2022-12-22T13:14:09.686Z,4768.00
2022-12-22T13:15:09.615Z,5180.00
2022-12-22T13:16:09.676Z,5288.00
2022-12-22T13:17:09.550Z,4888.00
2022-12-22T13:18:09.556Z,4200.00
2022-12-22T13:19:09.463Z,3772.00
2022-12-22T13:20:09.416Z,3704.00
2022-12-22T13:22:09.345Z,3676.00
2022-12-22T13:23:09.303Z,3492.00
2022-12-22T13:24:26.965Z,3876.00
2022-12-22T13:25:09.212Z,4616.00
2022-12-22T13:26:09.192Z,4692.00
2022-12-22T13:27:09.146Z,3908.00
2022-12-22T13:28:09.100Z,3192.00
2022-12-22T13:29:09.051Z,2984.00
2022-12-22T13:30:12.911Z,3052.00
2022-12-22T13:31:09.077Z,2936.00
2022-12-22T13:32:08.933Z,3012.00
2022-12-22T13:33:08.903Z,2700.00
2022-12-22T13:34:08.864Z,2496.00
2022-12-22T13:36:08.786Z,2936.00
2022-12-22T13:37:08.731Z,3076.00
2022-12-22T13:38:08.729Z,3024.00
2022-12-22T13:39:08.662Z,3676.00
2022-12-22T13:40:08.609Z,3740.00
2022-12-22T13:41:08.574Z,3692.00
2022-12-22T13:42:08.577Z,3568.00
2022-12-22T13:43:08.487Z,3224.00
2022-12-22T13:44:08.456Z,2956.00
2022-12-22T13:45:08.419Z,3372.00
2022-12-22T13:46:08.373Z,3568.00
2022-12-22T13:47:08.381Z,3180.00
2022-12-22T13:48:08.302Z,2980.00
2022-12-22T13:49:08.245Z,2600.00
2022-12-22T13:50:09.719Z,2136.00
2022-12-22T13:51:08.171Z,1672.00
2022-12-22T13:52:08.133Z,1336.00
2022-12-22T13:53:08.094Z,1180.00
2022-12-22T13:54:10.644Z,1132.00
2022-12-22T13:55:08.010Z,1232.00
2022-12-22T13:56:07.963Z,1352.00
2022-12-22T13:57:07.950Z,1652.00
2022-12-22T13:58:07.907Z,1724.00
2022-12-22T13:59:07.838Z,2424.00
2022-12-22T14:00:07.801Z,2392.00
2022-12-22T14:01:07.818Z,2272.00
2022-12-22T14:02:07.794Z,2360.00
2022-12-22T14:03:09.382Z,2572.00
2022-12-22T14:04:07.994Z,2572.00
2022-12-22T14:05:07.618Z,2548.00
2022-12-22T14:06:07.557Z,2340.00
2022-12-22T14:07:07.513Z,2316.00
2022-12-22T14:08:07.499Z,2600.00
2022-12-22T14:09:07.430Z,2808.00
2022-12-22T14:10:07.401Z,2760.00
2022-12-22T14:11:07.348Z,3140.00
2022-12-22T14:12:07.325Z,3376.00
2022-12-22T14:13:07.280Z,3224.00
2022-12-22T14:14:07.244Z,2736.00
2022-12-22T14:15:07.185Z,2352.00
2022-12-22T14:16:07.156Z,2204.00
2022-12-22T14:17:07.108Z,2336.00
2022-12-22T14:18:07.080Z,2320.00
2022-12-22T14:19:07.034Z,2112.00
2022-12-22T14:20:07.011Z,1976.00
2022-12-22T14:21:06.943Z,2036.00
2022-12-22T14:22:06.912Z,2188.00
2022-12-22T14:23:06.874Z,2144.00
2022-12-22T14:24:06.818Z,2108.00
2022-12-22T14:25:06.787Z,1944.00
2022-12-22T14:26:06.751Z,1720.00